Polaris Voyager — C6AP4 — position and weather

sailwx.info

Track history (hours):
 
Tides and Currents Weather Stations Pressure Air Temp Water Temp Dewpoint Dewpoint Depression Visibility Wind Speed Wind Dir Waves Ship Positions

Polaris Voyager

Last reported at 2018-Apr-23 04:00 UTC. Time now 2018-Apr-23 04:00 UTC.
Position N 32°58' W 117°46'.

Length 276 m; draft 9.8 m.

Type: Ship (hazmat cat A). MMSI: 311000112.

Date/timePositionNaut miles runAvg speedWind from/ knotsBaromVisibWave heightAir tempDewpointWater temp
2018-Apr-23 04:00N 32°58' W 117°46'0 0.8
2018-Apr-23 03:30N 32°58' W 117°45'0 0.8
2018-Apr-23 03:00N 32°57' W 117°45'0 0.8
2018-Apr-23 02:30N 32°57' W 117°45'0 0.7
2018-Apr-23 02:00N 32°56' W 117°45'0 0.7
2018-Apr-23 01:30N 32°56' W 117°45'0 0.6
2018-Apr-23 01:00N 32°56' W 117°45'1 2.0
2018-Apr-23 00:30N 32°56' W 117°46'1 1.8
2018-Apr-23 00:00N 32°57' W 117°47'1 1.6
2018-Apr-22 23:30N 32°58' W 117°47'1 1.7
2018-Apr-22 23:00N 32°58' W 117°48'1 1.5
2018-Apr-22 22:30N 32°59' W 117°48'1 1.5
2018-Apr-22 22:00N 32°60' W 117°49'1 1.3
2018-Apr-22 21:31N 33°00' W 117°50'1 1.3
2018-Apr-22 20:59N 33°01' W 117°50'1 1.1
2018-Apr-22 20:30N 33°01' W 117°51'1 1.0
2018-Apr-22 20:00N 33°01' W 117°51'0 1.0
2018-Apr-22 19:30N 33°02' W 117°51'0 0.9
2018-Apr-22 19:00N 33°02' W 117°52'1 1.4
2018-Apr-22 18:30N 33°03' W 117°52'1 2.3
2018-Apr-22 18:00N 33°04' W 117°53'2 3.8
2018-Apr-22 17:31N 33°05' W 117°54'2 4.7
2018-Apr-22 17:00N 33°07' W 117°55'3 6.1
2018-Apr-22 16:30N 33°10' W 117°57'2 4.6
2018-Apr-22 16:00N 33°12' W 117°59'0 0.8
2018-Apr-22 15:30N 33°11' W 117°59'0 0.7
2018-Apr-22 15:00N 33°11' W 117°60'4 7.5
2018-Apr-22 14:30N 33°10' W 118°04'611.6
2018-Apr-22 14:00N 33°07' W 118°10'510.8
2018-Apr-22 13:31N 33°06' W 118°16'3 5.8
2018-Apr-22 13:00N 33°06' W 118°20'5 9.8
2018-Apr-22 12:30N 33°08' W 118°25'510.4
2018-Apr-22 12:00N 33°10' W 118°31'5 9.9
2018-Apr-22 11:31N 33°12' W 118°36'5 9.6
2018-Apr-22 10:59N 33°14' W 118°42'510.2
2018-Apr-22 10:30N 33°14' W 118°47'510.2
2018-Apr-22 10:01N 33°15' W 118°53'510.1
2018-Apr-22 09:30N 33°15' W 118°59'510.0
2018-Apr-22 09:00N 33°15' W 119°05'5 9.8
2018-Apr-22 08:30N 33°17' W 119°11'815.4
2018-Apr-22 08:00N 33°23' W 119°16'816.0
2018-Apr-22 07:30N 33°28' W 119°23'815.8
2018-Apr-22 07:00N 33°33' W 119°32'815.6
2018-Apr-22 06:30N 33°35' W 119°40'815.8
2018-Apr-22 06:00N 33°35' W 119°50'815.6
2018-Apr-22 05:30N 33°35' W 119°59'611.3
2018-Apr-22 05:00N 33°36' W 120°06'714.7
2018-Apr-22 04:30N 33°37' W 120°15'815.6
2018-Apr-22 04:00N 33°41' W 120°23'816.0
2018-Apr-22 03:30N 33°46' W 120°31'816.0
2018-Apr-22 03:00N 33°51' W 120°38'816.7
2018-Apr-22 02:30N 33°57' W 120°44'816.3
2018-Apr-22 02:00N 34°04' W 120°51'816.0
2018-Apr-22 01:30N 34°10' W 120°56'816.0
2018-Apr-22 01:01N 34°17' W 121°01'916.1
2018-Apr-22 00:26N 34°25' W 121°07'715.9
2018-Apr-22 00:01N 34°31' W 121°11'816.0
2018-Apr-21 23:31N 34°37' W 121°17'816.2
2018-Apr-21 23:01N 34°44' W 121°22'816.4
2018-Apr-21 22:30N 34°51' W 121°28'816.6
2018-Apr-21 22:00N 34°58' W 121°33'816.1
2018-Apr-21 21:30N 35°04' W 121°39'816.1
2018-Apr-21 21:00N 35°11' W 121°44'816.0
2018-Apr-21 20:31N 35°18' W 121°50'815.8
2018-Apr-21 20:00N 35°24' W 121°56'10116.3
2018-Apr-21 13:46N 36°55' W 122°51'616.1
2018-Apr-21 13:25N 37°00' W 122°53'816.3
2018-Apr-21 12:58N 37°07' W 122°57'716.2
2018-Apr-21 12:31N 37°14' W 123°00'915.9
2018-Apr-21 11:55N 37°23' W 123°04'615.7
2018-Apr-21 11:30N 37°29' W 123°07'612.5
2018-Apr-21 11:00N 37°35' W 123°03'714.9
2018-Apr-21 10:30N 37°39' W 122°55'714.4
2018-Apr-21 10:01N 37°42' W 122°48'5 9.9
2018-Apr-21 09:30N 37°44' W 122°42'3 6.0
2018-Apr-21 09:00N 37°46' W 122°39'510.6
2018-Apr-21 08:30N 37°48' W 122°32'510.3
2018-Apr-21 08:00N 37°50' W 122°27'3 5.1
2018-Apr-21 07:31N 37°53' W 122°25'3 6.0
2018-Apr-21 07:01N 37°56' W 122°25'0 0.2
2018-Apr-21 06:31N 37°56' W 122°25'0 0.0
2018-Apr-21 06:00N 37°56' W 122°25'0 0.0
2018-Apr-21 05:30N 37°56' W 122°25'0 0.0
2018-Apr-21 05:00N 37°56' W 122°25'0 0.0
2018-Apr-21 04:30N 37°56' W 122°25'0 0.0
2018-Apr-21 04:00N 37°56' W 122°25'0 0.0
2018-Apr-21 03:24N 37°56' W 122°25'0 0.0
2018-Apr-21 02:57N 37°56' W 122°25'0 0.0
2018-Apr-21 02:27N 37°56' W 122°25'0 0.0
2018-Apr-21 01:57N 37°56' W 122°25'0 0.0
2018-Apr-21 01:30N 37°56' W 122°25'0 0.0
2018-Apr-21 00:54N 37°56' W 122°25'0 0.0
2018-Apr-21 00:30N 37°56' W 122°25'0 0.0
2018-Apr-21 00:00N 37°56' W 122°25'0 0.0
2018-Apr-20 23:30N 37°56' W 122°25'0 0.0
2018-Apr-20 22:57N 37°56' W 122°25'0 0.0
2018-Apr-20 22:30N 37°56' W 122°25'0 0.0
2018-Apr-20 22:00N 37°56' W 122°25'0 0.0
2018-Apr-20 21:30N 37°56' W 122°25'0 0.0
2018-Apr-20 21:00N 37°56' W 122°25'0 0.0
2018-Apr-20 20:30N 37°56' W 122°25'0 0.0
2018-Apr-20 20:00N 37°56' W 122°25'0 0.0
2018-Apr-20 19:30N 37°56' W 122°25'0 0.0
2018-Apr-20 19:00N 37°56' W 122°25'0 0.0
2018-Apr-20 18:30N 37°56' W 122°25'0 0.0
2018-Apr-20 18:00N 37°56' W 122°25'0 0.0
2018-Apr-20 17:30N 37°56' W 122°25'0 0.0
2018-Apr-20 17:00N 37°56' W 122°25'0 0.0
2018-Apr-20 16:30N 37°56' W 122°25'0 0.0
2018-Apr-20 16:00N 37°56' W 122°25'0 0.0
2018-Apr-20 15:24N 37°56' W 122°25'0 0.0
2018-Apr-20 15:00N 37°56' W 122°25'0 0.0
2018-Apr-20 14:30N 37°56' W 122°25'0 0.0
2018-Apr-20 13:57N 37°56' W 122°25'0 0.0
2018-Apr-20 13:30N 37°56' W 122°25'0 0.0
2018-Apr-20 13:00N 37°56' W 122°25'0 0.0
2018-Apr-20 12:30N 37°56' W 122°25'0 0.0
2018-Apr-20 12:00N 37°56' W 122°25'0 0.0
2018-Apr-20 11:30N 37°56' W 122°25'0 0.0
2018-Apr-20 10:54N 37°56' W 122°25'0 0.0
2018-Apr-20 10:30N 37°56' W 122°25'0 0.0
2018-Apr-20 10:00N 37°56' W 122°25'0 0.0
2018-Apr-20 09:30N 37°56' W 122°25'0 0.0
2018-Apr-20 09:00N 37°56' W 122°25'0 0.0
2018-Apr-20 08:30N 37°56' W 122°25'0 0.0
2018-Apr-20 08:00N 37°56' W 122°25'0 0.0
2018-Apr-20 07:30N 37°56' W 122°25'0 0.0
2018-Apr-20 07:00N 37°56' W 122°25'0 0.0
2018-Apr-20 06:30N 37°56' W 122°25'0 0.0
2018-Apr-20 05:57N 37°56' W 122°25'0 0.0
2018-Apr-20 05:30N 37°56' W 122°25'0 0.0
2018-Apr-20 04:57N 37°56' W 122°25'0 0.0
2018-Apr-20 04:30N 37°56' W 122°25'0 0.0
2018-Apr-20 04:00N 37°56' W 122°25'0 0.0
2018-Apr-20 03:21N 37°56' W 122°25'0 0.0
2018-Apr-20 03:00N 37°56' W 122°25'0 0.0
2018-Apr-20 02:30N 37°56' W 122°25'1 2.3
2018-Apr-20 02:00N 37°54' W 122°25'4 7.4
2018-Apr-20 01:30N 37°51' W 122°25'4 8.4
2018-Apr-20 01:00N 37°49' W 122°30'611.1
2018-Apr-20 00:30N 37°46' W 122°36'510.0
2018-Apr-20 00:00N 37°44' W 122°42'4 7.8
2018-Apr-19 23:30N 37°41' W 122°45'3 5.3
2018-Apr-19 23:00N 37°40' W 122°48'3 5.5
2018-Apr-19 22:30N 37°38' W 122°51'4 8.0
2018-Apr-19 22:00N 37°36' W 122°55'4 7.9
2018-Apr-19 21:30N 37°34' W 122°59'2 4.2
2018-Apr-19 21:00N 37°33' W 123°01'5 9.8
2018-Apr-19 20:30N 37°30' W 123°06'5 9.6
2018-Apr-19 19:58N 37°26' W 123°11'33 9.7
2018-Apr-19 16:34N 36°55' W 123°24'413.3
2018-Apr-19 16:18N 36°52' W 123°22'413.2
2018-Apr-19 16:00N 36°48' W 123°20'813.1
2018-Apr-19 15:23N 36°41' W 123°16'15513.9
2018-Apr-19 04:16N 34°26' W 121°42'514.4
2018-Apr-19 03:55N 34°23' W 121°37'614.1
2018-Apr-19 03:30N 34°20' W 121°31'714.0
2018-Apr-19 03:00N 34°16' W 121°24'713.8
2018-Apr-19 02:30N 34°12' W 121°17'713.7
2018-Apr-19 02:00N 34°09' W 121°10'713.5
2018-Apr-19 01:30N 34°05' W 121°03'713.8
2018-Apr-19 01:00N 34°01' W 120°56'713.6
2018-Apr-19 00:30N 33°58' W 120°49'713.0
2018-Apr-19 00:00N 33°54' W 120°43'612.6
2018-Apr-18 23:30N 33°51' W 120°36'713.6
2018-Apr-18 23:00N 33°48' W 120°29'713.5
2018-Apr-18 22:30N 33°45' W 120°22'713.6
2018-Apr-18 22:00N 33°42' W 120°14'713.2
2018-Apr-18 21:27N 33°40' W 120°06'613.9
2018-Apr-18 21:00N 33°40' W 119°58'713.2
2018-Apr-18 20:29N 33°40' W 119°50'713.7
2018-Apr-18 19:59N 33°40' W 119°42'713.7
2018-Apr-18 19:30N 33°40' W 119°34'713.7
2018-Apr-18 18:59N 33°33' W 119°33'714.3
2018-Apr-18 18:30N 33°29' W 119°26'714.3
2018-Apr-18 18:00N 33°25' W 119°19'714.3
2018-Apr-18 17:30N 33°19' W 119°13'714.1
2018-Apr-18 17:00N 33°15' W 119°07'714.3
2018-Apr-18 16:30N 33°14' W 118°58'713.3
2018-Apr-18 16:00N 33°14' W 118°50'711.6
2018-Apr-18 15:26N 33°14' W 118°42'511.4
2018-Apr-18 14:58N 33°12' W 118°36'611.8
2018-Apr-18 14:28N 33°09' W 118°30'611.7
2018-Apr-18 13:59N 33°07' W 118°24'611.5
2018-Apr-18 13:29N 33°05' W 118°17'611.8
2018-Apr-18 13:00N 33°05' W 118°10'611.6
2018-Apr-18 12:30N 33°04' W 118°04'611.7
2018-Apr-18 12:01N 33°04' W 117°57'4 7.1
2018-Apr-18 11:31N 33°03' W 117°53'0 0.8
2018-Apr-18 11:00N 33°04' W 117°53'0 0.6
2018-Apr-18 10:30N 33°04' W 117°53'0 0.5
2018-Apr-18 10:01N 33°04' W 117°53'1 1.0
2018-Apr-18 09:31N 33°04' W 117°52'1 1.9
2018-Apr-18 09:01N 33°03' W 117°51'1 1.6
2018-Apr-18 08:29N 33°03' W 117°51'1 1.4
2018-Apr-18 07:59N 33°02' W 117°50'1 1.1
2018-Apr-18 07:30N 33°02' W 117°50'1 1.2
2018-Apr-18 07:00N 33°01' W 117°49'1 1.2
2018-Apr-18 06:30N 33°01' W 117°49'1 1.1
2018-Apr-18 06:00N 33°00' W 117°49'1 1.3
2018-Apr-18 05:30N 32°60' W 117°48'0 0.5
2018-Apr-18 05:00N 32°60' W 117°48'0 0.3
2018-Apr-18 04:30N 32°60' W 117°48'0 0.2
2018-Apr-18 04:00N 32°60' W 117°48'0 0.7
2018-Apr-18 03:30N 32°59' W 117°48'1 1.8
2018-Apr-18 03:00N 32°58' W 117°48'1 1.2
2018-Apr-18 02:30N 32°58' W 117°48'0 0.7
2018-Apr-18 02:00N 32°57' W 117°48'0 0.8
2018-Apr-18 01:30N 32°57' W 117°48'1 1.1
2018-Apr-18 01:00N 32°57' W 117°49'1 1.1
2018-Apr-18 00:30N 32°58' W 117°49'1 1.3
2018-Apr-18 00:01N 32°58' W 117°50'1 1.2
2018-Apr-17 23:29N 32°59' W 117°50'1 1.2
2018-Apr-17 23:00N 32°59' W 117°51'1 1.5
2018-Apr-17 22:30N 32°59' W 117°52'1 1.8
2018-Apr-17 22:00N 32°60' W 117°52'1 2.0
2018-Apr-17 21:30N 33°01' W 117°53'1 2.7
2018-Apr-17 21:00N 33°02' W 117°54'2 4.5
2018-Apr-17 20:31N 33°04' W 117°55'2 4.8
2018-Apr-17 20:01N 33°06' W 117°57'3 6.2
2018-Apr-17 19:30N 33°09' W 117°58'2 4.6
2018-Apr-17 19:01N 33°11' W 117°59'2 3.9
2018-Apr-17 18:30N 33°13' W 117°60'1 1.3
2018-Apr-17 18:00N 33°13' W 118°01'1 2.5
2018-Apr-17 17:31N 33°14' W 118°02'2 3.0
2018-Apr-17 16:58N 33°15' W 118°03'1 1.2
2018-Apr-17 16:30N 33°15' W 118°02'1 1.1
2018-Apr-17 16:00N 33°14' W 118°02'1 1.2
2018-Apr-17 15:31N 33°14' W 118°02'1 1.2
2018-Apr-17 15:01N 33°13' W 118°01'1 1.1
2018-Apr-17 14:30N 33°13' W 118°01'1 1.2
2018-Apr-17 13:52N 33°12' W 118°01'1 2.3
2018-Apr-17 13:29N 33°11' W 118°00'0 1.0
2018-Apr-17 13:01N 33°11' W 117°60'0 0.8
2018-Apr-17 12:29N 33°11' W 117°59'0 0.7
2018-Apr-17 12:00N 33°10' W 117°59'0 0.3
2018-Apr-17 11:31N 33°10' W 117°59'0 0.7
2018-Apr-17 11:01N 33°10' W 117°59'0 0.8
2018-Apr-17 10:28N 33°10' W 117°58'2 4.6
2018-Apr-17 10:00N 33°12' W 117°57'3 5.3
2018-Apr-17 09:30N 33°15' W 117°56'1 1.4
2018-Apr-17 09:01N 33°15' W 117°56'0 0.5
2018-Apr-17 08:31N 33°16' W 117°56'0 0.5
2018-Apr-17 07:59N 33°16' W 117°55'0 0.4
2018-Apr-17 07:31N 33°16' W 117°55'0 0.7
2018-Apr-17 07:00N 33°15' W 117°55'0 0.4
2018-Apr-17 06:30N 33°15' W 117°55'0 0.5
2018-Apr-17 06:00N 33°15' W 117°54'0 0.4
2018-Apr-17 05:30N 33°15' W 117°54'0 0.6
2018-Apr-17 05:00N 33°15' W 117°54'0 0.9
2018-Apr-17 04:30N 33°16' W 117°54'1 2.1
2018-Apr-17 04:00N 33°15' W 117°55'1 1.4
2018-Apr-17 03:30N 33°15' W 117°56'1 1.5
2018-Apr-17 03:00N 33°15' W 117°56'0 0.5
2018-Apr-17 02:30N 33°15' W 117°56'5 9.0
2018-Apr-17 01:57N 33°13' W 118°01'511.5
2018-Apr-17 01:30N 33°17' W 118°05'1311.5
2018-Apr-17 00:24N 33°29' W 118°10'511.4
2018-Apr-17 00:00N 33°33' W 118°12'611.0
2018-Apr-16 23:30N 33°38' W 118°12'5 9.8
2018-Apr-16 23:00N 33°43' W 118°11'2 3.2
2018-Apr-16 22:31N 33°44' W 118°10'0 0.1
2018-Apr-16 22:00N 33°44' W 118°09'0 0.1
2018-Apr-16 21:29N 33°44' W 118°10'0 0.1
2018-Apr-16 20:59N 33°44' W 118°09'0 0.1
2018-Apr-16 20:23N 33°44' W 118°10'0 0.0
2018-Apr-16 19:59N 33°44' W 118°10'0 0.1
2018-Apr-16 19:29N 33°44' W 118°09'0 0.1
2018-Apr-16 18:59N 33°44' W 118°10'0 0.0
2018-Apr-16 18:23N 33°44' W 118°10'0 0.0
2018-Apr-16 17:59N 33°44' W 118°10'0 0.0
2018-Apr-16 17:29N 33°44' W 118°10'0 0.0
2018-Apr-16 16:59N 33°44' W 118°10'0 0.0
2018-Apr-16 16:29N 33°44' W 118°10'0 0.0
2018-Apr-16 15:59N 33°44' W 118°10'0 0.0
2018-Apr-16 15:29N 33°44' W 118°10'0 0.1
2018-Apr-16 14:59N 33°44' W 118°10'0 0.0
2018-Apr-16 14:29N 33°44' W 118°10'0 0.0
2018-Apr-16 13:59N 33°44' W 118°10'0 0.0
2018-Apr-16 13:29N 33°44' W 118°10'0 0.0
2018-Apr-16 12:59N 33°44' W 118°10'0 0.0
2018-Apr-16 12:29N 33°44' W 118°10'0 0.0
2018-Apr-16 11:59N 33°44' W 118°10'0 0.0
2018-Apr-16 11:29N 33°44' W 118°10'0 0.1
2018-Apr-16 10:59N 33°44' W 118°09'0 0.1
2018-Apr-16 10:29N 33°44' W 118°10'0 0.1
2018-Apr-16 09:56N 33°44' W 118°10'0 0.0
2018-Apr-16 09:29N 33°44' W 118°10'0 0.0
2018-Apr-16 08:59N 33°44' W 118°10'0 0.0
2018-Apr-16 08:29N 33°44' W 118°10'0 0.0
2018-Apr-16 07:59N 33°44' W 118°10'0 0.1
2018-Apr-16 07:29N 33°44' W 118°10'0 0.1
2018-Apr-16 06:59N 33°44' W 118°10'0 0.1
2018-Apr-16 06:29N 33°44' W 118°10'0 0.1
2018-Apr-16 05:59N 33°44' W 118°10'0 0.1
2018-Apr-16 05:29N 33°44' W 118°10'0 0.1
2018-Apr-16 04:59N 33°44' W 118°10'0 0.0
2018-Apr-16 04:29N 33°44' W 118°10'0 0.0
2018-Apr-16 03:59N 33°44' W 118°10'0 0.0
2018-Apr-16 03:29N 33°44' W 118°10'0 0.0
2018-Apr-16 02:59N 33°44' W 118°10'0 0.0
2018-Apr-16 02:29N 33°44' W 118°10'0 0.0
2018-Apr-16 01:59N 33°44' W 118°10'0 0.0
2018-Apr-16 01:29N 33°44' W 118°10'0 0.0
2018-Apr-16 00:59N 33°44' W 118°10'0 0.0
2018-Apr-16 00:29N 33°44' W 118°10'0 0.0
2018-Apr-15 23:59N 33°44' W 118°10'0 0.0
2018-Apr-15 23:29N 33°44' W 118°10'0 0.0
2018-Apr-15 22:59N 33°44' W 118°10'0 0.0
2018-Apr-15 22:29N 33°44' W 118°10'0 0.1
2018-Apr-15 21:59N 33°44' W 118°10'0 0.0
2018-Apr-15 21:29N 33°44' W 118°10'0 0.0
2018-Apr-15 20:56N 33°44' W 118°10'0 0.0
2018-Apr-15 20:29N 33°44' W 118°10'0 0.0
2018-Apr-15 19:59N 33°44' W 118°10'0 0.1
2018-Apr-15 19:29N 33°44' W 118°10'0 0.2
2018-Apr-15 18:59N 33°44' W 118°10'0 0.2
2018-Apr-15 18:29N 33°44' W 118°10'0 0.2
2018-Apr-15 17:59N 33°44' W 118°10'0 0.1
2018-Apr-15 17:29N 33°44' W 118°10'0 0.3
2018-Apr-15 16:59N 33°44' W 118°10'0 0.2
2018-Apr-15 16:29N 33°44' W 118°10'0 0.1
2018-Apr-15 15:56N 33°44' W 118°10'0 0.1
2018-Apr-15 15:29N 33°44' W 118°10'0 0.1
2018-Apr-15 14:59N 33°44' W 118°10'0 0.1
2018-Apr-15 14:26N 33°44' W 118°10'0 0.1
2018-Apr-15 13:59N 33°44' W 118°09'0 0.1
2018-Apr-15 13:29N 33°44' W 118°09'0 0.1
2018-Apr-15 12:59N 33°44' W 118°09'0 0.0
2018-Apr-15 12:29N 33°44' W 118°09'0 0.0
2018-Apr-15 11:59N 33°44' W 118°09'0 0.0
2018-Apr-15 11:29N 33°44' W 118°09'0 0.1
2018-Apr-15 10:59N 33°44' W 118°10'0 0.0
2018-Apr-15 10:29N 33°44' W 118°10'0 0.0
2018-Apr-15 09:59N 33°44' W 118°10'0 0.1
2018-Apr-15 09:29N 33°44' W 118°09'0 0.1
2018-Apr-15 08:59N 33°44' W 118°09'0 0.1
2018-Apr-15 08:29N 33°44' W 118°09'0 0.1
2018-Apr-15 07:59N 33°44' W 118°10'0 0.1
2018-Apr-15 07:29N 33°44' W 118°10'0 0.0
2018-Apr-15 06:56N 33°44' W 118°10'0 0.0
2018-Apr-15 06:26N 33°44' W 118°10'0 0.0
2018-Apr-15 05:56N 33°44' W 118°10'0 0.1
2018-Apr-15 05:29N 33°44' W 118°10'0 0.1
2018-Apr-15 04:59N 33°44' W 118°09'0 0.1
2018-Apr-15 04:29N 33°44' W 118°10'0 0.0
2018-Apr-15 03:59N 33°44' W 118°10'0 0.1
2018-Apr-15 03:29N 33°44' W 118°09'0 0.0
2018-Apr-15 02:59N 33°44' W 118°09'0 0.1
2018-Apr-15 02:29N 33°44' W 118°09'0 0.0
2018-Apr-15 01:59N 33°44' W 118°09'0 0.0
2018-Apr-15 01:26N 33°44' W 118°09'0 0.0
2018-Apr-15 01:00N 33°44' W 118°09'0 0.0
2018-Apr-15 00:30N 33°44' W 118°09'0 0.0
2018-Apr-15 00:00N 33°44' W 118°09'0 0.0
2018-Apr-14 23:30N 33°44' W 118°09'0 0.0
2018-Apr-14 23:01N 33°44' W 118°09'0 0.0
2018-Apr-14 22:28N 33°44' W 118°09'0 0.0
2018-Apr-14 21:58N 33°44' W 118°09'0 0.0
2018-Apr-14 21:28N 33°44' W 118°09'0 0.0
2018-Apr-14 20:58N 33°44' W 118°09'0 0.0
2018-Apr-14 20:28N 33°44' W 118°09'0 0.1
2018-Apr-14 19:58N 33°44' W 118°10'0 0.1
2018-Apr-14 19:28N 33°44' W 118°10'0 0.2
2018-Apr-14 18:58N 33°44' W 118°10'0 0.1
2018-Apr-14 18:28N 33°44' W 118°10'0 0.1
2018-Apr-14 17:58N 33°44' W 118°10'0 0.1
2018-Apr-14 17:28N 33°44' W 118°10'0 0.0
2018-Apr-14 16:58N 33°44' W 118°10'0 0.1
2018-Apr-14 16:25N 33°44' W 118°10'0 0.0
2018-Apr-14 15:58N 33°44' W 118°10'0 0.1
2018-Apr-14 15:28N 33°44' W 118°10'0 0.1
2018-Apr-14 14:58N 33°44' W 118°10'0 0.1
2018-Apr-14 14:28N 33°44' W 118°10'0 0.1
2018-Apr-14 13:58N 33°44' W 118°09'0 0.0
2018-Apr-14 13:25N 33°44' W 118°09'0 0.0
2018-Apr-14 12:58N 33°44' W 118°09'0 0.0
2018-Apr-14 12:28N 33°44' W 118°09'0 0.0
2018-Apr-14 11:58N 33°44' W 118°09'0 0.0
2018-Apr-14 11:28N 33°44' W 118°09'0 0.0
2018-Apr-14 10:58N 33°44' W 118°09'0 0.1
2018-Apr-14 10:28N 33°44' W 118°09'0 0.0
2018-Apr-14 09:58N 33°44' W 118°09'0 0.1
2018-Apr-14 09:25N 33°44' W 118°09'0 0.0
2018-Apr-14 08:58N 33°44' W 118°09'0 0.1
2018-Apr-14 08:28N 33°44' W 118°09'0 0.1
2018-Apr-14 07:58N 33°44' W 118°10'0 0.0
2018-Apr-14 07:28N 33°44' W 118°10'0 0.2
2018-Apr-14 06:58N 33°44' W 118°10'0 0.0
2018-Apr-14 06:28N 33°44' W 118°10'0 0.0
2018-Apr-14 05:58N 33°44' W 118°10'0 0.0
2018-Apr-14 05:28N 33°44' W 118°10'0 0.2
2018-Apr-14 04:58N 33°44' W 118°10'0 0.2
2018-Apr-14 04:25N 33°44' W 118°09'0 0.1
2018-Apr-14 03:58N 33°44' W 118°09'0 0.0
2018-Apr-14 03:28N 33°44' W 118°09'0 0.0
2018-Apr-14 02:58N 33°44' W 118°09'0 0.1
2018-Apr-14 02:28N 33°44' W 118°09'0 0.0
2018-Apr-14 01:58N 33°44' W 118°09'0 0.0
2018-Apr-14 01:28N 33°44' W 118°09'0 0.0
2018-Apr-14 00:58N 33°44' W 118°09'0 0.0
2018-Apr-14 00:25N 33°44' W 118°09'0 0.0
2018-Apr-13 23:55N 33°44' W 118°09'0 0.0
2018-Apr-13 23:25N 33°44' W 118°09'0 0.0
2018-Apr-13 22:58N 33°44' W 118°09'0 0.0
2018-Apr-13 22:28N 33°44' W 118°09'0 0.0
2018-Apr-13 21:58N 33°44' W 118°09'0 0.1
2018-Apr-13 21:28N 33°44' W 118°10'0 0.0
2018-Apr-13 20:55N 33°44' W 118°10'0 0.0
2018-Apr-13 20:28N 33°44' W 118°10'0 0.0
2018-Apr-13 19:58N 33°44' W 118°10'0 0.1
2018-Apr-13 19:25N 33°44' W 118°10'0 0.0
2018-Apr-13 18:58N 33°44' W 118°10'0 0.2
2018-Apr-13 18:28N 33°44' W 118°10'0 0.1
2018-Apr-13 17:58N 33°44' W 118°10'0 0.1
2018-Apr-13 17:28N 33°44' W 118°10'0 0.1
2018-Apr-13 16:58N 33°44' W 118°10'0 0.1
2018-Apr-13 16:28N 33°44' W 118°10'0 0.0
2018-Apr-13 15:30N 33°44' W 118°10'0 0.0
2018-Apr-13 15:01N 33°44' W 118°10'0 0.1
2018-Apr-13 14:30N 33°44' W 118°10'0 0.1
2018-Apr-13 14:00N 33°44' W 118°10'0 0.4
2018-Apr-13 13:30N 33°44' W 118°10'3 5.4
2018-Apr-13 13:00N 33°41' W 118°11'3 6.5
2018-Apr-13 12:30N 33°38' W 118°11'4 7.4
2018-Apr-13 12:00N 33°37' W 118°15'4 7.5
2018-Apr-13 11:31N 33°36' W 118°20'4 8.1
2018-Apr-13 11:00N 33°37' W 118°24'4 8.5
2018-Apr-13 10:30N 33°38' W 118°29'4 8.6
2018-Apr-13 10:00N 33°39' W 118°34'4 8.5
2018-Apr-13 09:30N 33°41' W 118°39'4 8.6
2018-Apr-13 09:00N 33°41' W 118°44'5 9.5
2018-Apr-13 08:30N 33°42' W 118°50'510.3
2018-Apr-13 08:00N 33°43' W 118°56'510.1
2018-Apr-13 07:30N 33°44' W 119°02'611.5
2018-Apr-13 07:00N 33°42' W 119°09'611.7
2018-Apr-13 06:30N 33°40' W 119°16'611.7
2018-Apr-13 05:59N 33°38' W 119°23'611.7
2018-Apr-13 05:30N 33°37' W 119°29'611.2
2018-Apr-13 05:00N 33°35' W 119°35'5 9.9
2018-Apr-13 04:30N 33°35' W 119°41'  
Track history (hours):
 
Tides and Currents Weather Stations Pressure Air Temp Water Temp Dewpoint Dewpoint Depression Visibility Wind Speed Wind Dir Waves Ship Positions

Polaris Voyager

Last reported at 2018-Apr-23 04:00 UTC. Time now 2018-Apr-23 04:00 UTC.
Position N 32°58' W 117°46'.

Length 276 m; draft 9.8 m.

Type: Ship (hazmat cat A). MMSI: 311000112.

Date/timePositionNaut miles runAvg speedWind from/ knotsBaromVisibWave heightAir tempDewpointWater temp
2018-Apr-23 04:00N 32°58' W 117°46'0 0.8
2018-Apr-23 03:30N 32°58' W 117°45'0 0.8
2018-Apr-23 03:00N 32°57' W 117°45'0 0.8
2018-Apr-23 02:30N 32°57' W 117°45'0 0.7
2018-Apr-23 02:00N 32°56' W 117°45'0 0.7
2018-Apr-23 01:30N 32°56' W 117°45'0 0.6
2018-Apr-23 01:00N 32°56' W 117°45'1 2.0
2018-Apr-23 00:30N 32°56' W 117°46'1 1.8
2018-Apr-23 00:00N 32°57' W 117°47'1 1.6
2018-Apr-22 23:30N 32°58' W 117°47'1 1.7
2018-Apr-22 23:00N 32°58' W 117°48'1 1.5
2018-Apr-22 22:30N 32°59' W 117°48'1 1.5
2018-Apr-22 22:00N 32°60' W 117°49'1 1.3
2018-Apr-22 21:31N 33°00' W 117°50'1 1.3
2018-Apr-22 20:59N 33°01' W 117°50'1 1.1
2018-Apr-22 20:30N 33°01' W 117°51'1 1.0
2018-Apr-22 20:00N 33°01' W 117°51'0 1.0
2018-Apr-22 19:30N 33°02' W 117°51'0 0.9
2018-Apr-22 19:00N 33°02' W 117°52'1 1.4
2018-Apr-22 18:30N 33°03' W 117°52'1 2.3
2018-Apr-22 18:00N 33°04' W 117°53'2 3.8
2018-Apr-22 17:31N 33°05' W 117°54'2 4.7
2018-Apr-22 17:00N 33°07' W 117°55'3 6.1
2018-Apr-22 16:30N 33°10' W 117°57'2 4.6
2018-Apr-22 16:00N 33°12' W 117°59'0 0.8
2018-Apr-22 15:30N 33°11' W 117°59'0 0.7
2018-Apr-22 15:00N 33°11' W 117°60'4 7.5
2018-Apr-22 14:30N 33°10' W 118°04'611.6
2018-Apr-22 14:00N 33°07' W 118°10'510.8
2018-Apr-22 13:31N 33°06' W 118°16'3 5.8
2018-Apr-22 13:00N 33°06' W 118°20'5 9.8
2018-Apr-22 12:30N 33°08' W 118°25'510.4
2018-Apr-22 12:00N 33°10' W 118°31'5 9.9
2018-Apr-22 11:31N 33°12' W 118°36'5 9.6
2018-Apr-22 10:59N 33°14' W 118°42'510.2
2018-Apr-22 10:30N 33°14' W 118°47'510.2
2018-Apr-22 10:01N 33°15' W 118°53'510.1
2018-Apr-22 09:30N 33°15' W 118°59'510.0
2018-Apr-22 09:00N 33°15' W 119°05'5 9.8
2018-Apr-22 08:30N 33°17' W 119°11'815.4
2018-Apr-22 08:00N 33°23' W 119°16'816.0
2018-Apr-22 07:30N 33°28' W 119°23'815.8
2018-Apr-22 07:00N 33°33' W 119°32'815.6
2018-Apr-22 06:30N 33°35' W 119°40'815.8
2018-Apr-22 06:00N 33°35' W 119°50'815.6
2018-Apr-22 05:30N 33°35' W 119°59'611.3
2018-Apr-22 05:00N 33°36' W 120°06'714.7
2018-Apr-22 04:30N 33°37' W 120°15'815.6
2018-Apr-22 04:00N 33°41' W 120°23'816.0
2018-Apr-22 03:30N 33°46' W 120°31'816.0
2018-Apr-22 03:00N 33°51' W 120°38'816.7
2018-Apr-22 02:30N 33°57' W 120°44'816.3
2018-Apr-22 02:00N 34°04' W 120°51'816.0
2018-Apr-22 01:30N 34°10' W 120°56'816.0
2018-Apr-22 01:01N 34°17' W 121°01'916.1
2018-Apr-22 00:26N 34°25' W 121°07'715.9
2018-Apr-22 00:01N 34°31' W 121°11'816.0
2018-Apr-21 23:31N 34°37' W 121°17'816.2
2018-Apr-21 23:01N 34°44' W 121°22'816.4
2018-Apr-21 22:30N 34°51' W 121°28'816.6
2018-Apr-21 22:00N 34°58' W 121°33'816.1
2018-Apr-21 21:30N 35°04' W 121°39'816.1
2018-Apr-21 21:00N 35°11' W 121°44'816.0
2018-Apr-21 20:31N 35°18' W 121°50'815.8
2018-Apr-21 20:00N 35°24' W 121°56'10116.3
2018-Apr-21 13:46N 36°55' W 122°51'616.1
2018-Apr-21 13:25N 37°00' W 122°53'816.3
2018-Apr-21 12:58N 37°07' W 122°57'716.2
2018-Apr-21 12:31N 37°14' W 123°00'915.9
2018-Apr-21 11:55N 37°23' W 123°04'615.7
2018-Apr-21 11:30N 37°29' W 123°07'612.5
2018-Apr-21 11:00N 37°35' W 123°03'714.9
2018-Apr-21 10:30N 37°39' W 122°55'714.4
2018-Apr-21 10:01N 37°42' W 122°48'5 9.9
2018-Apr-21 09:30N 37°44' W 122°42'3 6.0
2018-Apr-21 09:00N 37°46' W 122°39'510.6
2018-Apr-21 08:30N 37°48' W 122°32'510.3
2018-Apr-21 08:00N 37°50' W 122°27'3 5.1
2018-Apr-21 07:31N 37°53' W 122°25'3 6.0
2018-Apr-21 07:01N 37°56' W 122°25'0 0.2
2018-Apr-21 06:31N 37°56' W 122°25'0 0.0
2018-Apr-21 06:00N 37°56' W 122°25'0 0.0
2018-Apr-21 05:30N 37°56' W 122°25'0 0.0
2018-Apr-21 05:00N 37°56' W 122°25'0 0.0
2018-Apr-21 04:30N 37°56' W 122°25'0 0.0
2018-Apr-21 04:00N 37°56' W 122°25'0 0.0
2018-Apr-21 03:24N 37°56' W 122°25'0 0.0
2018-Apr-21 02:57N 37°56' W 122°25'0 0.0
2018-Apr-21 02:27N 37°56' W 122°25'0 0.0
2018-Apr-21 01:57N 37°56' W 122°25'0 0.0
2018-Apr-21 01:30N 37°56' W 122°25'0 0.0
2018-Apr-21 00:54N 37°56' W 122°25'0 0.0
2018-Apr-21 00:30N 37°56' W 122°25'0 0.0
2018-Apr-21 00:00N 37°56' W 122°25'0 0.0
2018-Apr-20 23:30N 37°56' W 122°25'0 0.0
2018-Apr-20 22:57N 37°56' W 122°25'0 0.0
2018-Apr-20 22:30N 37°56' W 122°25'0 0.0
2018-Apr-20 22:00N 37°56' W 122°25'0 0.0
2018-Apr-20 21:30N 37°56' W 122°25'0 0.0
2018-Apr-20 21:00N 37°56' W 122°25'0 0.0
2018-Apr-20 20:30N 37°56' W 122°25'0 0.0
2018-Apr-20 20:00N 37°56' W 122°25'0 0.0
2018-Apr-20 19:30N 37°56' W 122°25'0 0.0
2018-Apr-20 19:00N 37°56' W 122°25'0 0.0
2018-Apr-20 18:30N 37°56' W 122°25'0 0.0
2018-Apr-20 18:00N 37°56' W 122°25'0 0.0
2018-Apr-20 17:30N 37°56' W 122°25'0 0.0
2018-Apr-20 17:00N 37°56' W 122°25'0 0.0
2018-Apr-20 16:30N 37°56' W 122°25'0 0.0
2018-Apr-20 16:00N 37°56' W 122°25'0 0.0
2018-Apr-20 15:24N 37°56' W 122°25'0 0.0
2018-Apr-20 15:00N 37°56' W 122°25'0 0.0
2018-Apr-20 14:30N 37°56' W 122°25'0 0.0
2018-Apr-20 13:57N 37°56' W 122°25'0 0.0
2018-Apr-20 13:30N 37°56' W 122°25'0 0.0
2018-Apr-20 13:00N 37°56' W 122°25'0 0.0
2018-Apr-20 12:30N 37°56' W 122°25'0 0.0
2018-Apr-20 12:00N 37°56' W 122°25'0 0.0
2018-Apr-20 11:30N 37°56' W 122°25'0 0.0
2018-Apr-20 10:54N 37°56' W 122°25'0 0.0
2018-Apr-20 10:30N 37°56' W 122°25'0 0.0
2018-Apr-20 10:00N 37°56' W 122°25'0 0.0
2018-Apr-20 09:30N 37°56' W 122°25'0 0.0
2018-Apr-20 09:00N 37°56' W 122°25'0 0.0
2018-Apr-20 08:30N 37°56' W 122°25'0 0.0
2018-Apr-20 08:00N 37°56' W 122°25'0 0.0
2018-Apr-20 07:30N 37°56' W 122°25'0 0.0
2018-Apr-20 07:00N 37°56' W 122°25'0 0.0
2018-Apr-20 06:30N 37°56' W 122°25'0 0.0
2018-Apr-20 05:57N 37°56' W 122°25'0 0.0
2018-Apr-20 05:30N 37°56' W 122°25'0 0.0
2018-Apr-20 04:57N 37°56' W 122°25'0 0.0
2018-Apr-20 04:30N 37°56' W 122°25'0 0.0
2018-Apr-20 04:00N 37°56' W 122°25'0 0.0
2018-Apr-20 03:21N 37°56' W 122°25'0 0.0
2018-Apr-20 03:00N 37°56' W 122°25'0 0.0
2018-Apr-20 02:30N 37°56' W 122°25'1 2.3
2018-Apr-20 02:00N 37°54' W 122°25'4 7.4
2018-Apr-20 01:30N 37°51' W 122°25'4 8.4
2018-Apr-20 01:00N 37°49' W 122°30'611.1
2018-Apr-20 00:30N 37°46' W 122°36'510.0
2018-Apr-20 00:00N 37°44' W 122°42'4 7.8
2018-Apr-19 23:30N 37°41' W 122°45'3 5.3
2018-Apr-19 23:00N 37°40' W 122°48'3 5.5
2018-Apr-19 22:30N 37°38' W 122°51'4 8.0
2018-Apr-19 22:00N 37°36' W 122°55'4 7.9
2018-Apr-19 21:30N 37°34' W 122°59'2 4.2
2018-Apr-19 21:00N 37°33' W 123°01'5 9.8
2018-Apr-19 20:30N 37°30' W 123°06'5 9.6
2018-Apr-19 19:58N 37°26' W 123°11'33 9.7
2018-Apr-19 16:34N 36°55' W 123°24'413.3
2018-Apr-19 16:18N 36°52' W 123°22'413.2
2018-Apr-19 16:00N 36°48' W 123°20'813.1
2018-Apr-19 15:23N 36°41' W 123°16'15513.9
2018-Apr-19 04:16N 34°26' W 121°42'514.4
2018-Apr-19 03:55N 34°23' W 121°37'614.1
2018-Apr-19 03:30N 34°20' W 121°31'714.0
2018-Apr-19 03:00N 34°16' W 121°24'713.8
2018-Apr-19 02:30N 34°12' W 121°17'713.7
2018-Apr-19 02:00N 34°09' W 121°10'713.5
2018-Apr-19 01:30N 34°05' W 121°03'713.8
2018-Apr-19 01:00N 34°01' W 120°56'713.6
2018-Apr-19 00:30N 33°58' W 120°49'713.0
2018-Apr-19 00:00N 33°54' W 120°43'612.6
2018-Apr-18 23:30N 33°51' W 120°36'713.6
2018-Apr-18 23:00N 33°48' W 120°29'713.5
2018-Apr-18 22:30N 33°45' W 120°22'713.6
2018-Apr-18 22:00N 33°42' W 120°14'713.2
2018-Apr-18 21:27N 33°40' W 120°06'613.9
2018-Apr-18 21:00N 33°40' W 119°58'713.2
2018-Apr-18 20:29N 33°40' W 119°50'713.7
2018-Apr-18 19:59N 33°40' W 119°42'713.7
2018-Apr-18 19:30N 33°40' W 119°34'713.7
2018-Apr-18 18:59N 33°33' W 119°33'714.3
2018-Apr-18 18:30N 33°29' W 119°26'714.3
2018-Apr-18 18:00N 33°25' W 119°19'714.3
2018-Apr-18 17:30N 33°19' W 119°13'714.1
2018-Apr-18 17:00N 33°15' W 119°07'714.3
2018-Apr-18 16:30N 33°14' W 118°58'713.3
2018-Apr-18 16:00N 33°14' W 118°50'711.6
2018-Apr-18 15:26N 33°14' W 118°42'511.4
2018-Apr-18 14:58N 33°12' W 118°36'611.8
2018-Apr-18 14:28N 33°09' W 118°30'611.7
2018-Apr-18 13:59N 33°07' W 118°24'611.5
2018-Apr-18 13:29N 33°05' W 118°17'611.8
2018-Apr-18 13:00N 33°05' W 118°10'611.6
2018-Apr-18 12:30N 33°04' W 118°04'611.7
2018-Apr-18 12:01N 33°04' W 117°57'4 7.1
2018-Apr-18 11:31N 33°03' W 117°53'0 0.8
2018-Apr-18 11:00N 33°04' W 117°53'0 0.6
2018-Apr-18 10:30N 33°04' W 117°53'0 0.5
2018-Apr-18 10:01N 33°04' W 117°53'1 1.0
2018-Apr-18 09:31N 33°04' W 117°52'1 1.9
2018-Apr-18 09:01N 33°03' W 117°51'1 1.6
2018-Apr-18 08:29N 33°03' W 117°51'1 1.4
2018-Apr-18 07:59N 33°02' W 117°50'1 1.1
2018-Apr-18 07:30N 33°02' W 117°50'1 1.2
2018-Apr-18 07:00N 33°01' W 117°49'1 1.2
2018-Apr-18 06:30N 33°01' W 117°49'1 1.1
2018-Apr-18 06:00N 33°00' W 117°49'1 1.3
2018-Apr-18 05:30N 32°60' W 117°48'0 0.5
2018-Apr-18 05:00N 32°60' W 117°48'0 0.3
2018-Apr-18 04:30N 32°60' W 117°48'0 0.2
2018-Apr-18 04:00N 32°60' W 117°48'0 0.7
2018-Apr-18 03:30N 32°59' W 117°48'1 1.8
2018-Apr-18 03:00N 32°58' W 117°48'1 1.2
2018-Apr-18 02:30N 32°58' W 117°48'0 0.7
2018-Apr-18 02:00N 32°57' W 117°48'0 0.8
2018-Apr-18 01:30N 32°57' W 117°48'1 1.1
2018-Apr-18 01:00N 32°57' W 117°49'1 1.1
2018-Apr-18 00:30N 32°58' W 117°49'1 1.3
2018-Apr-18 00:01N 32°58' W 117°50'1 1.2
2018-Apr-17 23:29N 32°59' W 117°50'1 1.2
2018-Apr-17 23:00N 32°59' W 117°51'1 1.5
2018-Apr-17 22:30N 32°59' W 117°52'1 1.8
2018-Apr-17 22:00N 32°60' W 117°52'1 2.0
2018-Apr-17 21:30N 33°01' W 117°53'1 2.7
2018-Apr-17 21:00N 33°02' W 117°54'2 4.5
2018-Apr-17 20:31N 33°04' W 117°55'2 4.8
2018-Apr-17 20:01N 33°06' W 117°57'3 6.2
2018-Apr-17 19:30N 33°09' W 117°58'2 4.6
2018-Apr-17 19:01N 33°11' W 117°59'2 3.9
2018-Apr-17 18:30N 33°13' W 117°60'1 1.3
2018-Apr-17 18:00N 33°13' W 118°01'1 2.5
2018-Apr-17 17:31N 33°14' W 118°02'2 3.0
2018-Apr-17 16:58N 33°15' W 118°03'1 1.2
2018-Apr-17 16:30N 33°15' W 118°02'1 1.1
2018-Apr-17 16:00N 33°14' W 118°02'1 1.2
2018-Apr-17 15:31N 33°14' W 118°02'1 1.2
2018-Apr-17 15:01N 33°13' W 118°01'1 1.1
2018-Apr-17 14:30N 33°13' W 118°01'1 1.2
2018-Apr-17 13:52N 33°12' W 118°01'1 2.3
2018-Apr-17 13:29N 33°11' W 118°00'0 1.0
2018-Apr-17 13:01N 33°11' W 117°60'0 0.8
2018-Apr-17 12:29N 33°11' W 117°59'0 0.7
2018-Apr-17 12:00N 33°10' W 117°59'0 0.3
2018-Apr-17 11:31N 33°10' W 117°59'0 0.7
2018-Apr-17 11:01N 33°10' W 117°59'0 0.8
2018-Apr-17 10:28N 33°10' W 117°58'2 4.6
2018-Apr-17 10:00N 33°12' W 117°57'3 5.3
2018-Apr-17 09:30N 33°15' W 117°56'1 1.4
2018-Apr-17 09:01N 33°15' W 117°56'0 0.5
2018-Apr-17 08:31N 33°16' W 117°56'0 0.5
2018-Apr-17 07:59N 33°16' W 117°55'0 0.4
2018-Apr-17 07:31N 33°16' W 117°55'0 0.7
2018-Apr-17 07:00N 33°15' W 117°55'0 0.4
2018-Apr-17 06:30N 33°15' W 117°55'0 0.5
2018-Apr-17 06:00N 33°15' W 117°54'0 0.4
2018-Apr-17 05:30N 33°15' W 117°54'0 0.6
2018-Apr-17 05:00N 33°15' W 117°54'0 0.9
2018-Apr-17 04:30N 33°16' W 117°54'1 2.1
2018-Apr-17 04:00N 33°15' W 117°55'1 1.4
2018-Apr-17 03:30N 33°15' W 117°56'1 1.5
2018-Apr-17 03:00N 33°15' W 117°56'0 0.5
2018-Apr-17 02:30N 33°15' W 117°56'5 9.0
2018-Apr-17 01:57N 33°13' W 118°01'511.5
2018-Apr-17 01:30N 33°17' W 118°05'1311.5
2018-Apr-17 00:24N 33°29' W 118°10'511.4
2018-Apr-17 00:00N 33°33' W 118°12'611.0
2018-Apr-16 23:30N 33°38' W 118°12'5 9.8
2018-Apr-16 23:00N 33°43' W 118°11'2 3.2
2018-Apr-16 22:31N 33°44' W 118°10'0 0.1
2018-Apr-16 22:00N 33°44' W 118°09'0 0.1
2018-Apr-16 21:29N 33°44' W 118°10'0 0.1
2018-Apr-16 20:59N 33°44' W 118°09'0 0.1
2018-Apr-16 20:23N 33°44' W 118°10'0 0.0
2018-Apr-16 19:59N 33°44' W 118°10'0 0.1
2018-Apr-16 19:29N 33°44' W 118°09'0 0.1
2018-Apr-16 18:59N 33°44' W 118°10'0 0.0
2018-Apr-16 18:23N 33°44' W 118°10'0 0.0
2018-Apr-16 17:59N 33°44' W 118°10'0 0.0
2018-Apr-16 17:29N 33°44' W 118°10'0 0.0
2018-Apr-16 16:59N 33°44' W 118°10'0 0.0
2018-Apr-16 16:29N 33°44' W 118°10'0 0.0
2018-Apr-16 15:59N 33°44' W 118°10'0 0.0
2018-Apr-16 15:29N 33°44' W 118°10'0 0.1
2018-Apr-16 14:59N 33°44' W 118°10'0 0.0
2018-Apr-16 14:29N 33°44' W 118°10'0 0.0
2018-Apr-16 13:59N 33°44' W 118°10'0 0.0
2018-Apr-16 13:29N 33°44' W 118°10'0 0.0
2018-Apr-16 12:59N 33°44' W 118°10'0 0.0
2018-Apr-16 12:29N 33°44' W 118°10'0 0.0
2018-Apr-16 11:59N 33°44' W 118°10'0 0.0
2018-Apr-16 11:29N 33°44' W 118°10'0 0.1
2018-Apr-16 10:59N 33°44' W 118°09'0 0.1
2018-Apr-16 10:29N 33°44' W 118°10'0 0.1
2018-Apr-16 09:56N 33°44' W 118°10'0 0.0
2018-Apr-16 09:29N 33°44' W 118°10'0 0.0
2018-Apr-16 08:59N 33°44' W 118°10'0 0.0
2018-Apr-16 08:29N 33°44' W 118°10'0 0.0
2018-Apr-16 07:59N 33°44' W 118°10'0 0.1
2018-Apr-16 07:29N 33°44' W 118°10'0 0.1
2018-Apr-16 06:59N 33°44' W 118°10'0 0.1
2018-Apr-16 06:29N 33°44' W 118°10'0 0.1
2018-Apr-16 05:59N 33°44' W 118°10'0 0.1
2018-Apr-16 05:29N 33°44' W 118°10'0 0.1
2018-Apr-16 04:59N 33°44' W 118°10'0 0.0
2018-Apr-16 04:29N 33°44' W 118°10'0 0.0
2018-Apr-16 03:59N 33°44' W 118°10'0 0.0
2018-Apr-16 03:29N 33°44' W 118°10'0 0.0
2018-Apr-16 02:59N 33°44' W 118°10'0 0.0
2018-Apr-16 02:29N 33°44' W 118°10'0 0.0
2018-Apr-16 01:59N 33°44' W 118°10'0 0.0
2018-Apr-16 01:29N 33°44' W 118°10'0 0.0
2018-Apr-16 00:59N 33°44' W 118°10'0 0.0
2018-Apr-16 00:29N 33°44' W 118°10'0 0.0
2018-Apr-15 23:59N 33°44' W 118°10'0 0.0
2018-Apr-15 23:29N 33°44' W 118°10'0 0.0
2018-Apr-15 22:59N 33°44' W 118°10'0 0.0
2018-Apr-15 22:29N 33°44' W 118°10'0 0.1
2018-Apr-15 21:59N 33°44' W 118°10'0 0.0
2018-Apr-15 21:29N 33°44' W 118°10'0 0.0
2018-Apr-15 20:56N 33°44' W 118°10'0 0.0
2018-Apr-15 20:29N 33°44' W 118°10'0 0.0
2018-Apr-15 19:59N 33°44' W 118°10'0 0.1
2018-Apr-15 19:29N 33°44' W 118°10'0 0.2
2018-Apr-15 18:59N 33°44' W 118°10'0 0.2
2018-Apr-15 18:29N 33°44' W 118°10'0 0.2
2018-Apr-15 17:59N 33°44' W 118°10'0 0.1
2018-Apr-15 17:29N 33°44' W 118°10'0 0.3
2018-Apr-15 16:59N 33°44' W 118°10'0 0.2
2018-Apr-15 16:29N 33°44' W 118°10'0 0.1
2018-Apr-15 15:56N 33°44' W 118°10'0 0.1
2018-Apr-15 15:29N 33°44' W 118°10'0 0.1
2018-Apr-15 14:59N 33°44' W 118°10'0 0.1
2018-Apr-15 14:26N 33°44' W 118°10'0 0.1
2018-Apr-15 13:59N 33°44' W 118°09'0 0.1
2018-Apr-15 13:29N 33°44' W 118°09'0 0.1
2018-Apr-15 12:59N 33°44' W 118°09'0 0.0
2018-Apr-15 12:29N 33°44' W 118°09'0 0.0
2018-Apr-15 11:59N 33°44' W 118°09'0 0.0
2018-Apr-15 11:29N 33°44' W 118°09'0 0.1
2018-Apr-15 10:59N 33°44' W 118°10'0 0.0
2018-Apr-15 10:29N 33°44' W 118°10'0 0.0
2018-Apr-15 09:59N 33°44' W 118°10'0 0.1
2018-Apr-15 09:29N 33°44' W 118°09'0 0.1
2018-Apr-15 08:59N 33°44' W 118°09'0 0.1
2018-Apr-15 08:29N 33°44' W 118°09'0 0.1
2018-Apr-15 07:59N 33°44' W 118°10'0 0.1
2018-Apr-15 07:29N 33°44' W 118°10'0 0.0
2018-Apr-15 06:56N 33°44' W 118°10'0 0.0
2018-Apr-15 06:26N 33°44' W 118°10'0 0.0
2018-Apr-15 05:56N 33°44' W 118°10'0 0.1
2018-Apr-15 05:29N 33°44' W 118°10'0 0.1
2018-Apr-15 04:59N 33°44' W 118°09'0 0.1
2018-Apr-15 04:29N 33°44' W 118°10'0 0.0
2018-Apr-15 03:59N 33°44' W 118°10'0 0.1
2018-Apr-15 03:29N 33°44' W 118°09'0 0.0
2018-Apr-15 02:59N 33°44' W 118°09'0 0.1
2018-Apr-15 02:29N 33°44' W 118°09'0 0.0
2018-Apr-15 01:59N 33°44' W 118°09'0 0.0
2018-Apr-15 01:26N 33°44' W 118°09'0 0.0
2018-Apr-15 01:00N 33°44' W 118°09'0 0.0
2018-Apr-15 00:30N 33°44' W 118°09'0 0.0
2018-Apr-15 00:00N 33°44' W 118°09'0 0.0
2018-Apr-14 23:30N 33°44' W 118°09'0 0.0
2018-Apr-14 23:01N 33°44' W 118°09'0 0.0
2018-Apr-14 22:28N 33°44' W 118°09'0 0.0
2018-Apr-14 21:58N 33°44' W 118°09'0 0.0
2018-Apr-14 21:28N 33°44' W 118°09'0 0.0
2018-Apr-14 20:58N 33°44' W 118°09'0 0.0
2018-Apr-14 20:28N 33°44' W 118°09'0 0.1
2018-Apr-14 19:58N 33°44' W 118°10'0 0.1
2018-Apr-14 19:28N 33°44' W 118°10'0 0.2
2018-Apr-14 18:58N 33°44' W 118°10'0 0.1
2018-Apr-14 18:28N 33°44' W 118°10'0 0.1
2018-Apr-14 17:58N 33°44' W 118°10'0 0.1
2018-Apr-14 17:28N 33°44' W 118°10'0 0.0
2018-Apr-14 16:58N 33°44' W 118°10'0 0.1
2018-Apr-14 16:25N 33°44' W 118°10'0 0.0
2018-Apr-14 15:58N 33°44' W 118°10'0 0.1
2018-Apr-14 15:28N 33°44' W 118°10'0 0.1
2018-Apr-14 14:58N 33°44' W 118°10'0 0.1
2018-Apr-14 14:28N 33°44' W 118°10'0 0.1
2018-Apr-14 13:58N 33°44' W 118°09'0 0.0
2018-Apr-14 13:25N 33°44' W 118°09'0 0.0
2018-Apr-14 12:58N 33°44' W 118°09'0 0.0
2018-Apr-14 12:28N 33°44' W 118°09'0 0.0
2018-Apr-14 11:58N 33°44' W 118°09'0 0.0
2018-Apr-14 11:28N 33°44' W 118°09'0 0.0
2018-Apr-14 10:58N 33°44' W 118°09'0 0.1
2018-Apr-14 10:28N 33°44' W 118°09'0 0.0
2018-Apr-14 09:58N 33°44' W 118°09'0 0.1
2018-Apr-14 09:25N 33°44' W 118°09'0 0.0
2018-Apr-14 08:58N 33°44' W 118°09'0 0.1
2018-Apr-14 08:28N 33°44' W 118°09'0 0.1
2018-Apr-14 07:58N 33°44' W 118°10'0 0.0
2018-Apr-14 07:28N 33°44' W 118°10'0 0.2
2018-Apr-14 06:58N 33°44' W 118°10'0 0.0
2018-Apr-14 06:28N 33°44' W 118°10'0 0.0
2018-Apr-14 05:58N 33°44' W 118°10'0 0.0
2018-Apr-14 05:28N 33°44' W 118°10'0 0.2
2018-Apr-14 04:58N 33°44' W 118°10'0 0.2
2018-Apr-14 04:25N 33°44' W 118°09'0 0.1
2018-Apr-14 03:58N 33°44' W 118°09'0 0.0
2018-Apr-14 03:28N 33°44' W 118°09'0 0.0
2018-Apr-14 02:58N 33°44' W 118°09'0 0.1
2018-Apr-14 02:28N 33°44' W 118°09'0 0.0
2018-Apr-14 01:58N 33°44' W 118°09'0 0.0
2018-Apr-14 01:28N 33°44' W 118°09'0 0.0
2018-Apr-14 00:58N 33°44' W 118°09'0 0.0
2018-Apr-14 00:25N 33°44' W 118°09'0 0.0
2018-Apr-13 23:55N 33°44' W 118°09'0 0.0
2018-Apr-13 23:25N 33°44' W 118°09'0 0.0
2018-Apr-13 22:58N 33°44' W 118°09'0 0.0
2018-Apr-13 22:28N 33°44' W 118°09'0 0.0
2018-Apr-13 21:58N 33°44' W 118°09'0 0.1
2018-Apr-13 21:28N 33°44' W 118°10'0 0.0
2018-Apr-13 20:55N 33°44' W 118°10'0 0.0
2018-Apr-13 20:28N 33°44' W 118°10'0 0.0
2018-Apr-13 19:58N 33°44' W 118°10'0 0.1
2018-Apr-13 19:25N 33°44' W 118°10'0 0.0
2018-Apr-13 18:58N 33°44' W 118°10'0 0.2
2018-Apr-13 18:28N 33°44' W 118°10'0 0.1
2018-Apr-13 17:58N 33°44' W 118°10'0 0.1
2018-Apr-13 17:28N 33°44' W 118°10'0 0.1
2018-Apr-13 16:58N 33°44' W 118°10'0 0.1
2018-Apr-13 16:28N 33°44' W 118°10'0 0.0
2018-Apr-13 15:30N 33°44' W 118°10'0 0.0
2018-Apr-13 15:01N 33°44' W 118°10'0 0.1
2018-Apr-13 14:30N 33°44' W 118°10'0 0.1
2018-Apr-13 14:00N 33°44' W 118°10'0 0.4
2018-Apr-13 13:30N 33°44' W 118°10'3 5.4
2018-Apr-13 13:00N 33°41' W 118°11'3 6.5
2018-Apr-13 12:30N 33°38' W 118°11'4 7.4
2018-Apr-13 12:00N 33°37' W 118°15'4 7.5
2018-Apr-13 11:31N 33°36' W 118°20'4 8.1
2018-Apr-13 11:00N 33°37' W 118°24'4 8.5
2018-Apr-13 10:30N 33°38' W 118°29'4 8.6
2018-Apr-13 10:00N 33°39' W 118°34'4 8.5
2018-Apr-13 09:30N 33°41' W 118°39'4 8.6
2018-Apr-13 09:00N 33°41' W 118°44'5 9.5
2018-Apr-13 08:30N 33°42' W 118°50'510.3
2018-Apr-13 08:00N 33°43' W 118°56'510.1
2018-Apr-13 07:30N 33°44' W 119°02'611.5
2018-Apr-13 07:00N 33°42' W 119°09'611.7
2018-Apr-13 06:30N 33°40' W 119°16'611.7
2018-Apr-13 05:59N 33°38' W 119°23'611.7
2018-Apr-13 05:30N 33°37' W 119°29'611.2
2018-Apr-13 05:00N 33°35' W 119°35'5 9.9
2018-Apr-13 04:30N 33°35' W 119°41'  

Dump ship's entire track history